sensor_id;sensor_type;location;lat;lon;timestamp;P1;durP1;ratioP1;P2;durP2;ratioP2
22176;SDS011;11254;50.098;8.726;2023-08-08T00:00:33;5.63;;;2.00;;
22176;SDS011;11254;50.098;8.726;2023-08-08T00:03:02;6.10;;;2.17;;
22176;SDS011;11254;50.098;8.726;2023-08-08T00:05:32;5.18;;;1.92;;
22176;SDS011;11254;50.098;8.726;2023-08-08T00:08:00;5.03;;;2.33;;
22176;SDS011;11254;50.098;8.726;2023-08-08T00:10:28;6.32;;;1.92;;
22176;SDS011;11254;50.098;8.726;2023-08-08T00:12:57;6.32;;;1.98;;
22176;SDS011;11254;50.098;8.726;2023-08-08T00:15:25;4.63;;;1.90;;
22176;SDS011;11254;50.098;8.726;2023-08-08T00:17:54;7.15;;;2.13;;
22176;SDS011;11254;50.098;8.726;2023-08-08T00:20:22;5.45;;;2.17;;
22176;SDS011;11254;50.098;8.726;2023-08-08T00:22:52;4.78;;;2.10;;
22176;SDS011;11254;50.098;8.726;2023-08-08T00:25:20;4.55;;;2.22;;
22176;SDS011;11254;50.098;8.726;2023-08-08T00:27:49;4.35;;;2.00;;
22176;SDS011;11254;50.098;8.726;2023-08-08T00:30:17;5.55;;;2.28;;
22176;SDS011;11254;50.098;8.726;2023-08-08T00:32:46;4.05;;;2.17;;
22176;SDS011;11254;50.098;8.726;2023-08-08T00:35:14;4.80;;;2.40;;
22176;SDS011;11254;50.098;8.726;2023-08-08T00:37:44;5.47;;;2.33;;
22176;SDS011;11254;50.098;8.726;2023-08-08T00:40:14;5.78;;;2.20;;
22176;SDS011;11254;50.098;8.726;2023-08-08T00:42:42;4.90;;;2.13;;
22176;SDS011;11254;50.098;8.726;2023-08-08T00:45:11;5.53;;;2.10;;
22176;SDS011;11254;50.098;8.726;2023-08-08T00:47:39;5.47;;;2.50;;
22176;SDS011;11254;50.098;8.726;2023-08-08T00:50:08;4.68;;;2.45;;
22176;SDS011;11254;50.098;8.726;2023-08-08T00:52:36;6.07;;;2.10;;
22176;SDS011;11254;50.098;8.726;2023-08-08T00:55:06;7.35;;;2.38;;
22176;SDS011;11254;50.098;8.726;2023-08-08T00:57:35;8.05;;;2.50;;
22176;SDS011;11254;50.098;8.726;2023-08-08T01:00:05;6.70;;;2.22;;
22176;SDS011;11254;50.098;8.726;2023-08-08T01:02:34;5.68;;;2.55;;
22176;SDS011;11254;50.098;8.726;2023-08-08T01:05:02;4.05;;;2.05;;
22176;SDS011;11254;50.098;8.726;2023-08-08T01:07:33;6.60;;;2.13;;
22176;SDS011;11254;50.098;8.726;2023-08-08T01:10:04;3.80;;;2.00;;
22176;SDS011;11254;50.098;8.726;2023-08-08T01:12:36;4.93;;;2.13;;
22176;SDS011;11254;50.098;8.726;2023-08-08T01:15:08;4.78;;;2.35;;
22176;SDS011;11254;50.098;8.726;2023-08-08T01:17:37;3.97;;;2.10;;
22176;SDS011;11254;50.098;8.726;2023-08-08T01:20:07;4.20;;;2.17;;
22176;SDS011;11254;50.098;8.726;2023-08-08T01:22:37;4.15;;;2.20;;
22176;SDS011;11254;50.098;8.726;2023-08-08T01:25:08;4.45;;;2.20;;
22176;SDS011;11254;50.098;8.726;2023-08-08T01:27:37;5.90;;;2.20;;
22176;SDS011;11254;50.098;8.726;2023-08-08T01:30:06;6.47;;;2.28;;
22176;SDS011;11254;50.098;8.726;2023-08-08T01:32:35;6.30;;;2.13;;
22176;SDS011;11254;50.098;8.726;2023-08-08T01:35:04;3.97;;;2.10;;
22176;SDS011;11254;50.098;8.726;2023-08-08T01:37:35;5.95;;;2.40;;
22176;SDS011;11254;50.098;8.726;2023-08-08T01:40:05;4.13;;;2.03;;
22176;SDS011;11254;50.098;8.726;2023-08-08T01:42:35;5.68;;;2.40;;
22176;SDS011;11254;50.098;8.726;2023-08-08T01:45:03;5.25;;;2.30;;
22176;SDS011;11254;50.098;8.726;2023-08-08T01:47:33;5.25;;;2.30;;
22176;SDS011;11254;50.098;8.726;2023-08-08T01:50:02;5.32;;;2.40;;
22176;SDS011;11254;50.098;8.726;2023-08-08T01:52:30;6.75;;;2.30;;
22176;SDS011;11254;50.098;8.726;2023-08-08T01:54:59;5.60;;;2.13;;
22176;SDS011;11254;50.098;8.726;2023-08-08T01:57:27;5.72;;;2.42;;
22176;SDS011;11254;50.098;8.726;2023-08-08T01:59:59;4.32;;;2.00;;
22176;SDS011;11254;50.098;8.726;2023-08-08T02:02:40;5.00;;;2.08;;
22176;SDS011;11254;50.098;8.726;2023-08-08T02:05:10;6.88;;;2.50;;
22176;SDS011;11254;50.098;8.726;2023-08-08T02:07:39;5.20;;;2.28;;
22176;SDS011;11254;50.098;8.726;2023-08-08T02:10:07;4.32;;;2.38;;
22176;SDS011;11254;50.098;8.726;2023-08-08T02:12:35;10.75;;;3.35;;
22176;SDS011;11254;50.098;8.726;2023-08-08T02:15:06;4.75;;;2.40;;
22176;SDS011;11254;50.098;8.726;2023-08-08T02:17:35;4.53;;;2.40;;
22176;SDS011;11254;50.098;8.726;2023-08-08T02:20:04;4.88;;;2.67;;
22176;SDS011;11254;50.098;8.726;2023-08-08T02:22:33;5.65;;;2.45;;
22176;SDS011;11254;50.098;8.726;2023-08-08T02:25:01;4.95;;;2.30;;
22176;SDS011;11254;50.098;8.726;2023-08-08T02:27:30;4.15;;;2.33;;
22176;SDS011;11254;50.098;8.726;2023-08-08T02:29:58;4.60;;;2.35;;
22176;SDS011;11254;50.098;8.726;2023-08-08T02:32:28;5.78;;;2.30;;
22176;SDS011;11254;50.098;8.726;2023-08-08T02:34:56;4.95;;;2.28;;
22176;SDS011;11254;50.098;8.726;2023-08-08T02:37:25;5.38;;;2.40;;
22176;SDS011;11254;50.098;8.726;2023-08-08T02:39:53;6.40;;;2.33;;
22176;SDS011;11254;50.098;8.726;2023-08-08T02:42:21;6.93;;;2.30;;
22176;SDS011;11254;50.098;8.726;2023-08-08T02:44:50;5.57;;;2.50;;
22176;SDS011;11254;50.098;8.726;2023-08-08T02:47:19;7.28;;;2.35;;
22176;SDS011;11254;50.098;8.726;2023-08-08T02:49:48;5.82;;;2.38;;
22176;SDS011;11254;50.098;8.726;2023-08-08T02:52:17;5.40;;;2.72;;
22176;SDS011;11254;50.098;8.726;2023-08-08T02:54:45;5.38;;;2.40;;
22176;SDS011;11254;50.098;8.726;2023-08-08T02:57:14;4.10;;;2.20;;
22176;SDS011;11254;50.098;8.726;2023-08-08T02:59:43;6.53;;;2.47;;
22176;SDS011;11254;50.098;8.726;2023-08-08T03:02:13;7.32;;;2.10;;
22176;SDS011;11254;50.098;8.726;2023-08-08T03:04:41;5.70;;;2.85;;
22176;SDS011;11254;50.098;8.726;2023-08-08T03:07:12;4.30;;;2.28;;
22176;SDS011;11254;50.098;8.726;2023-08-08T03:09:40;5.78;;;2.28;;
22176;SDS011;11254;50.098;8.726;2023-08-08T03:12:10;5.72;;;2.30;;
22176;SDS011;11254;50.098;8.726;2023-08-08T03:14:38;5.72;;;1.98;;
22176;SDS011;11254;50.098;8.726;2023-08-08T03:17:07;4.28;;;2.10;;
22176;SDS011;11254;50.098;8.726;2023-08-08T03:19:35;4.50;;;2.30;;
22176;SDS011;11254;50.098;8.726;2023-08-08T03:22:04;4.15;;;2.10;;
22176;SDS011;11254;50.098;8.726;2023-08-08T03:24:37;8.73;;;2.38;;
22176;SDS011;11254;50.098;8.726;2023-08-08T03:27:05;6.47;;;2.20;;
22176;SDS011;11254;50.098;8.726;2023-08-08T03:29:34;5.68;;;2.58;;
22176;SDS011;11254;50.098;8.726;2023-08-08T03:32:03;7.35;;;2.67;;
22176;SDS011;11254;50.098;8.726;2023-08-08T03:34:32;4.75;;;2.38;;
22176;SDS011;11254;50.098;8.726;2023-08-08T03:37:02;5.20;;;2.30;;
22176;SDS011;11254;50.098;8.726;2023-08-08T03:39:31;4.05;;;2.20;;
22176;SDS011;11254;50.098;8.726;2023-08-08T03:42:01;5.47;;;2.30;;
22176;SDS011;11254;50.098;8.726;2023-08-08T03:44:29;5.88;;;2.60;;
22176;SDS011;11254;50.098;8.726;2023-08-08T03:46:58;4.28;;;2.10;;
22176;SDS011;11254;50.098;8.726;2023-08-08T03:49:44;8.43;;;2.60;;
22176;SDS011;11254;50.098;8.726;2023-08-08T03:52:12;5.57;;;2.15;;
22176;SDS011;11254;50.098;8.726;2023-08-08T03:54:42;5.93;;;2.20;;
22176;SDS011;11254;50.098;8.726;2023-08-08T03:57:12;5.10;;;2.10;;
22176;SDS011;11254;50.098;8.726;2023-08-08T03:59:40;5.20;;;2.30;;
22176;SDS011;11254;50.098;8.726;2023-08-08T04:02:09;4.85;;;2.20;;
22176;SDS011;11254;50.098;8.726;2023-08-08T04:04:37;4.28;;;2.20;;
22176;SDS011;11254;50.098;8.726;2023-08-08T04:07:06;3.92;;;1.92;;
22176;SDS011;11254;50.098;8.726;2023-08-08T04:09:34;5.00;;;2.30;;
22176;SDS011;11254;50.098;8.726;2023-08-08T04:12:02;8.95;;;2.38;;
22176;SDS011;11254;50.098;8.726;2023-08-08T04:14:33;4.40;;;2.10;;
22176;SDS011;11254;50.098;8.726;2023-08-08T04:17:01;6.40;;;2.07;;
22176;SDS011;11254;50.098;8.726;2023-08-08T04:19:31;4.20;;;2.10;;
22176;SDS011;11254;50.098;8.726;2023-08-08T04:21:59;5.35;;;2.10;;
22176;SDS011;11254;50.098;8.726;2023-08-08T04:24:28;4.95;;;2.00;;
22176;SDS011;11254;50.098;8.726;2023-08-08T04:26:56;4.93;;;2.33;;
22176;SDS011;11254;50.098;8.726;2023-08-08T04:29:24;5.00;;;2.33;;
22176;SDS011;11254;50.098;8.726;2023-08-08T04:31:54;5.68;;;2.45;;
22176;SDS011;11254;50.098;8.726;2023-08-08T04:34:23;6.00;;;2.08;;
22176;SDS011;11254;50.098;8.726;2023-08-08T04:36:51;6.85;;;2.10;;
22176;SDS011;11254;50.098;8.726;2023-08-08T04:39:20;5.05;;;1.95;;
22176;SDS011;11254;50.098;8.726;2023-08-08T04:41:48;4.90;;;1.80;;
22176;SDS011;11254;50.098;8.726;2023-08-08T04:44:17;5.65;;;2.20;;
22176;SDS011;11254;50.098;8.726;2023-08-08T04:46:45;4.75;;;1.95;;
22176;SDS011;11254;50.098;8.726;2023-08-08T04:49:15;6.97;;;2.47;;
22176;SDS011;11254;50.098;8.726;2023-08-08T04:51:43;6.15;;;1.90;;
22176;SDS011;11254;50.098;8.726;2023-08-08T04:54:12;6.82;;;1.90;;
22176;SDS011;11254;50.098;8.726;2023-08-08T04:56:40;5.35;;;2.35;;
22176;SDS011;11254;50.098;8.726;2023-08-08T04:59:08;4.93;;;2.30;;
22176;SDS011;11254;50.098;8.726;2023-08-08T05:01:37;5.25;;;2.08;;
22176;SDS011;11254;50.098;8.726;2023-08-08T05:04:05;4.82;;;1.90;;
22176;SDS011;11254;50.098;8.726;2023-08-08T05:06:35;10.15;;;2.60;;
22176;SDS011;11254;50.098;8.726;2023-08-08T05:09:03;4.53;;;2.00;;
22176;SDS011;11254;50.098;8.726;2023-08-08T05:11:32;6.13;;;1.98;;
22176;SDS011;11254;50.098;8.726;2023-08-08T05:14:00;3.70;;;1.90;;
22176;SDS011;11254;50.098;8.726;2023-08-08T05:16:29;4.35;;;1.83;;
22176;SDS011;11254;50.098;8.726;2023-08-08T05:18:57;3.78;;;1.65;;
22176;SDS011;11254;50.098;8.726;2023-08-08T05:21:25;4.63;;;1.92;;
22176;SDS011;11254;50.098;8.726;2023-08-08T05:23:55;6.47;;;1.88;;
22176;SDS011;11254;50.098;8.726;2023-08-08T05:26:24;5.85;;;2.03;;
22176;SDS011;11254;50.098;8.726;2023-08-08T05:28:52;3.75;;;1.73;;
22176;SDS011;11254;50.098;8.726;2023-08-08T05:31:21;4.05;;;1.85;;
22176;SDS011;11254;50.098;8.726;2023-08-08T05:33:49;4.78;;;1.70;;
22176;SDS011;11254;50.098;8.726;2023-08-08T05:36:17;4.25;;;1.70;;
22176;SDS011;11254;50.098;8.726;2023-08-08T05:38:46;4.13;;;1.60;;
22176;SDS011;11254;50.098;8.726;2023-08-08T05:41:16;4.65;;;1.73;;
22176;SDS011;11254;50.098;8.726;2023-08-08T05:43:44;3.83;;;1.75;;
22176;SDS011;11254;50.098;8.726;2023-08-08T05:46:12;3.97;;;1.77;;
22176;SDS011;11254;50.098;8.726;2023-08-08T05:48:41;4.28;;;1.83;;
22176;SDS011;11254;50.098;8.726;2023-08-08T05:51:11;4.55;;;1.88;;
22176;SDS011;11254;50.098;8.726;2023-08-08T05:53:40;3.63;;;1.73;;
22176;SDS011;11254;50.098;8.726;2023-08-08T05:56:08;6.50;;;1.73;;
22176;SDS011;11254;50.098;8.726;2023-08-08T05:58:38;4.50;;;1.60;;
22176;SDS011;11254;50.098;8.726;2023-08-08T06:01:09;5.03;;;1.63;;
22176;SDS011;11254;50.098;8.726;2023-08-08T06:03:45;3.30;;;1.60;;
22176;SDS011;11254;50.098;8.726;2023-08-08T06:06:14;4.50;;;1.60;;
22176;SDS011;11254;50.098;8.726;2023-08-08T06:08:43;5.15;;;1.83;;
22176;SDS011;11254;50.098;8.726;2023-08-08T06:11:13;3.47;;;1.55;;
22176;SDS011;11254;50.098;8.726;2023-08-08T06:13:45;4.22;;;1.65;;
22176;SDS011;11254;50.098;8.726;2023-08-08T06:16:18;4.85;;;1.52;;
22176;SDS011;11254;50.098;8.726;2023-08-08T06:18:48;3.28;;;1.45;;
22176;SDS011;11254;50.098;8.726;2023-08-08T06:21:17;4.40;;;1.58;;
22176;SDS011;11254;50.098;8.726;2023-08-08T06:23:45;4.95;;;1.63;;
22176;SDS011;11254;50.098;8.726;2023-08-08T06:26:14;7.43;;;1.95;;
22176;SDS011;11254;50.098;8.726;2023-08-08T06:28:42;3.83;;;1.77;;
22176;SDS011;11254;50.098;8.726;2023-08-08T06:31:12;3.78;;;1.75;;
22176;SDS011;11254;50.098;8.726;2023-08-08T06:33:40;6.40;;;1.75;;
22176;SDS011;11254;50.098;8.726;2023-08-08T06:36:09;5.45;;;1.65;;
22176;SDS011;11254;50.098;8.726;2023-08-08T06:38:37;4.07;;;1.75;;
22176;SDS011;11254;50.098;8.726;2023-08-08T06:41:06;4.03;;;1.60;;
22176;SDS011;11254;50.098;8.726;2023-08-08T06:43:34;3.90;;;1.70;;
22176;SDS011;11254;50.098;8.726;2023-08-08T06:46:03;4.05;;;1.55;;
22176;SDS011;11254;50.098;8.726;2023-08-08T06:48:32;5.43;;;1.65;;
22176;SDS011;11254;50.098;8.726;2023-08-08T06:51:01;4.10;;;1.75;;
22176;SDS011;11254;50.098;8.726;2023-08-08T06:53:29;3.95;;;1.40;;
22176;SDS011;11254;50.098;8.726;2023-08-08T06:55:57;4.30;;;1.35;;
22176;SDS011;11254;50.098;8.726;2023-08-08T06:58:26;4.70;;;1.63;;
22176;SDS011;11254;50.098;8.726;2023-08-08T07:00:55;7.22;;;1.80;;
22176;SDS011;11254;50.098;8.726;2023-08-08T07:03:26;5.15;;;1.67;;
22176;SDS011;11254;50.098;8.726;2023-08-08T07:06:03;3.88;;;1.40;;
22176;SDS011;11254;50.098;8.726;2023-08-08T07:08:32;4.30;;;1.50;;
22176;SDS011;11254;50.098;8.726;2023-08-08T07:11:00;3.53;;;1.48;;
22176;SDS011;11254;50.098;8.726;2023-08-08T07:13:29;2.50;;;1.13;;
22176;SDS011;11254;50.098;8.726;2023-08-08T07:15:57;4.65;;;1.50;;
22176;SDS011;11254;50.098;8.726;2023-08-08T07:18:25;5.60;;;1.20;;
22176;SDS011;11254;50.098;8.726;2023-08-08T07:20:54;4.88;;;1.30;;
22176;SDS011;11254;50.098;8.726;2023-08-08T07:23:24;5.80;;;1.10;;
22176;SDS011;11254;50.098;8.726;2023-08-08T07:25:52;2.80;;;1.00;;
22176;SDS011;11254;50.098;8.726;2023-08-08T07:28:21;3.15;;;1.10;;
22176;SDS011;11254;50.098;8.726;2023-08-08T07:30:49;5.55;;;1.25;;
22176;SDS011;11254;50.098;8.726;2023-08-08T07:33:18;4.72;;;1.00;;
22176;SDS011;11254;50.098;8.726;2023-08-08T07:35:47;3.38;;;1.67;;
22176;SDS011;11254;50.098;8.726;2023-08-08T07:38:17;3.50;;;1.17;;
22176;SDS011;11254;50.098;8.726;2023-08-08T07:40:47;2.63;;;0.85;;
22176;SDS011;11254;50.098;8.726;2023-08-08T07:43:17;3.83;;;1.13;;
22176;SDS011;11254;50.098;8.726;2023-08-08T07:45:47;2.72;;;1.02;;
22176;SDS011;11254;50.098;8.726;2023-08-08T07:48:16;3.22;;;1.00;;
22176;SDS011;11254;50.098;8.726;2023-08-08T07:50:47;2.38;;;0.95;;
22176;SDS011;11254;50.098;8.726;2023-08-08T07:53:21;2.75;;;1.00;;
22176;SDS011;11254;50.098;8.726;2023-08-08T07:55:56;2.80;;;1.00;;
22176;SDS011;11254;50.098;8.726;2023-08-08T07:58:27;3.90;;;1.00;;
22176;SDS011;11254;50.098;8.726;2023-08-08T08:00:58;2.67;;;0.98;;
22176;SDS011;11254;50.098;8.726;2023-08-08T08:03:28;3.95;;;1.00;;
22176;SDS011;11254;50.098;8.726;2023-08-08T08:06:00;2.50;;;1.00;;
22176;SDS011;11254;50.098;8.726;2023-08-08T08:08:29;2.72;;;0.98;;
22176;SDS011;11254;50.098;8.726;2023-08-08T08:11:03;7.82;;;1.00;;
22176;SDS011;11254;50.098;8.726;2023-08-08T08:13:37;3.28;;;1.08;;
22176;SDS011;11254;50.098;8.726;2023-08-08T08:16:07;3.40;;;0.90;;
22176;SDS011;11254;50.098;8.726;2023-08-08T08:18:36;4.75;;;1.02;;
22176;SDS011;11254;50.098;8.726;2023-08-08T08:21:05;4.80;;;1.30;;
22176;SDS011;11254;50.098;8.726;2023-08-08T08:23:35;3.10;;;1.20;;
22176;SDS011;11254;50.098;8.726;2023-08-08T08:26:05;3.63;;;0.98;;
22176;SDS011;11254;50.098;8.726;2023-08-08T08:28:35;3.25;;;1.20;;
22176;SDS011;11254;50.098;8.726;2023-08-08T08:31:05;2.65;;;0.93;;
22176;SDS011;11254;50.098;8.726;2023-08-08T08:33:35;4.55;;;1.13;;
22176;SDS011;11254;50.098;8.726;2023-08-08T08:36:03;3.92;;;0.90;;
22176;SDS011;11254;50.098;8.726;2023-08-08T08:38:34;4.22;;;1.17;;
22176;SDS011;11254;50.098;8.726;2023-08-08T08:41:10;3.40;;;1.30;;
22176;SDS011;11254;50.098;8.726;2023-08-08T08:43:43;3.20;;;1.20;;
22176;SDS011;11254;50.098;8.726;2023-08-08T08:46:24;3.80;;;1.35;;
22176;SDS011;11254;50.098;8.726;2023-08-08T08:48:54;3.88;;;1.20;;
22176;SDS011;11254;50.098;8.726;2023-08-08T08:51:23;3.80;;;1.13;;
22176;SDS011;11254;50.098;8.726;2023-08-08T08:53:52;3.70;;;1.23;;
22176;SDS011;11254;50.098;8.726;2023-08-08T08:56:23;4.13;;;1.50;;
22176;SDS011;11254;50.098;8.726;2023-08-08T08:58:53;3.78;;;1.00;;
22176;SDS011;11254;50.098;8.726;2023-08-08T09:01:24;3.25;;;1.08;;
22176;SDS011;11254;50.098;8.726;2023-08-08T09:03:56;3.25;;;1.23;;
22176;SDS011;11254;50.098;8.726;2023-08-08T09:06:27;5.78;;;1.30;;
22176;SDS011;11254;50.098;8.726;2023-08-08T09:08:58;4.65;;;1.20;;
22176;SDS011;11254;50.098;8.726;2023-08-08T09:11:38;3.47;;;1.10;;
22176;SDS011;11254;50.098;8.726;2023-08-08T09:14:14;2.55;;;0.95;;
22176;SDS011;11254;50.098;8.726;2023-08-08T09:16:45;4.40;;;1.10;;
22176;SDS011;11254;50.098;8.726;2023-08-08T09:19:14;3.08;;;1.23;;
22176;SDS011;11254;50.098;8.726;2023-08-08T09:21:44;4.65;;;1.20;;
22176;SDS011;11254;50.098;8.726;2023-08-08T09:24:16;3.00;;;1.15;;
22176;SDS011;11254;50.098;8.726;2023-08-08T09:26:46;3.08;;;0.80;;
22176;SDS011;11254;50.098;8.726;2023-08-08T09:29:15;2.70;;;0.98;;
22176;SDS011;11254;50.098;8.726;2023-08-08T09:31:45;4.18;;;1.50;;
22176;SDS011;11254;50.098;8.726;2023-08-08T09:34:16;4.03;;;1.48;;
22176;SDS011;11254;50.098;8.726;2023-08-08T09:36:51;4.60;;;1.20;;
22176;SDS011;11254;50.098;8.726;2023-08-08T09:39:20;4.15;;;1.10;;
22176;SDS011;11254;50.098;8.726;2023-08-08T09:41:51;2.97;;;1.15;;
22176;SDS011;11254;50.098;8.726;2023-08-08T09:44:24;2.88;;;1.10;;
22176;SDS011;11254;50.098;8.726;2023-08-08T09:46:54;7.30;;;3.15;;
22176;SDS011;11254;50.098;8.726;2023-08-08T09:49:26;4.50;;;1.83;;
22176;SDS011;11254;50.098;8.726;2023-08-08T09:52:06;3.42;;;1.42;;
22176;SDS011;11254;50.098;8.726;2023-08-08T09:54:38;3.17;;;1.30;;
22176;SDS011;11254;50.098;8.726;2023-08-08T09:57:09;5.50;;;1.35;;
22176;SDS011;11254;50.098;8.726;2023-08-08T09:59:37;4.00;;;1.55;;
22176;SDS011;11254;50.098;8.726;2023-08-08T10:02:08;3.78;;;1.40;;
22176;SDS011;11254;50.098;8.726;2023-08-08T10:04:44;3.58;;;1.50;;
22176;SDS011;11254;50.098;8.726;2023-08-08T10:07:16;4.70;;;1.42;;
22176;SDS011;11254;50.098;8.726;2023-08-08T10:09:44;3.72;;;1.50;;
22176;SDS011;11254;50.098;8.726;2023-08-08T10:12:15;3.75;;;1.38;;
22176;SDS011;11254;50.098;8.726;2023-08-08T10:14:46;3.47;;;1.30;;
22176;SDS011;11254;50.098;8.726;2023-08-08T10:17:20;6.38;;;1.67;;
22176;SDS011;11254;50.098;8.726;2023-08-08T10:19:50;4.82;;;1.60;;
22176;SDS011;11254;50.098;8.726;2023-08-08T10:22:20;4.95;;;1.23;;
22176;SDS011;11254;50.098;8.726;2023-08-08T10:24:53;4.40;;;1.30;;
22176;SDS011;11254;50.098;8.726;2023-08-08T10:27:30;4.05;;;1.20;;
22176;SDS011;11254;50.098;8.726;2023-08-08T10:30:03;3.95;;;1.70;;
22176;SDS011;11254;50.098;8.726;2023-08-08T10:32:39;3.35;;;1.58;;
22176;SDS011;11254;50.098;8.726;2023-08-08T10:35:10;3.65;;;1.30;;
22176;SDS011;11254;50.098;8.726;2023-08-08T10:37:51;3.42;;;1.33;;
22176;SDS011;11254;50.098;8.726;2023-08-08T10:40:23;4.43;;;1.30;;
22176;SDS011;11254;50.098;8.726;2023-08-08T10:42:53;3.88;;;1.60;;
22176;SDS011;11254;50.098;8.726;2023-08-08T10:45:30;8.85;;;1.95;;
22176;SDS011;11254;50.098;8.726;2023-08-08T10:48:07;2.95;;;1.30;;
22176;SDS011;11254;50.098;8.726;2023-08-08T10:50:38;2.88;;;1.30;;
22176;SDS011;11254;50.098;8.726;2023-08-08T10:53:08;4.93;;;1.30;;
22176;SDS011;11254;50.098;8.726;2023-08-08T10:55:44;3.38;;;1.48;;
22176;SDS011;11254;50.098;8.726;2023-08-08T10:58:14;4.93;;;1.77;;
22176;SDS011;11254;50.098;8.726;2023-08-08T11:00:45;4.00;;;1.58;;
22176;SDS011;11254;50.098;8.726;2023-08-08T11:03:14;3.33;;;1.38;;
22176;SDS011;11254;50.098;8.726;2023-08-08T11:05:45;3.38;;;1.40;;
22176;SDS011;11254;50.098;8.726;2023-08-08T11:08:23;3.28;;;1.30;;
22176;SDS011;11254;50.098;8.726;2023-08-08T11:10:56;4.45;;;1.42;;
22176;SDS011;11254;50.098;8.726;2023-08-08T11:13:30;5.55;;;1.45;;
22176;SDS011;11254;50.098;8.726;2023-08-08T11:16:05;3.03;;;1.02;;
22176;SDS011;11254;50.098;8.726;2023-08-08T11:18:37;5.32;;;1.20;;
22176;SDS011;11254;50.098;8.726;2023-08-08T11:21:11;5.07;;;1.40;;
22176;SDS011;11254;50.098;8.726;2023-08-08T11:23:45;3.92;;;1.20;;
22176;SDS011;11254;50.098;8.726;2023-08-08T11:26:23;4.10;;;1.70;;
22176;SDS011;11254;50.098;8.726;2023-08-08T11:28:55;4.82;;;1.40;;
22176;SDS011;11254;50.098;8.726;2023-08-08T11:31:24;4.22;;;1.40;;
22176;SDS011;11254;50.098;8.726;2023-08-08T11:34:00;6.40;;;1.40;;
22176;SDS011;11254;50.098;8.726;2023-08-08T11:36:32;4.03;;;1.30;;
22176;SDS011;11254;50.098;8.726;2023-08-08T11:39:09;3.33;;;1.25;;
22176;SDS011;11254;50.098;8.726;2023-08-08T11:41:39;5.63;;;1.70;;
22176;SDS011;11254;50.098;8.726;2023-08-08T11:44:13;4.82;;;1.70;;
22176;SDS011;11254;50.098;8.726;2023-08-08T11:46:45;5.45;;;1.30;;
22176;SDS011;11254;50.098;8.726;2023-08-08T11:49:17;4.22;;;1.45;;
22176;SDS011;11254;50.098;8.726;2023-08-08T11:51:54;4.80;;;1.70;;
22176;SDS011;11254;50.098;8.726;2023-08-08T11:54:30;4.50;;;1.77;;
22176;SDS011;11254;50.098;8.726;2023-08-08T11:57:05;4.55;;;1.58;;
22176;SDS011;11254;50.098;8.726;2023-08-08T11:59:37;6.00;;;1.38;;
22176;SDS011;11254;50.098;8.726;2023-08-08T12:02:07;3.47;;;1.45;;
22176;SDS011;11254;50.098;8.726;2023-08-08T12:04:43;3.88;;;1.50;;
22176;SDS011;11254;50.098;8.726;2023-08-08T12:07:17;3.58;;;1.60;;
22176;SDS011;11254;50.098;8.726;2023-08-08T12:09:46;5.35;;;1.65;;
22176;SDS011;11254;50.098;8.726;2023-08-08T12:12:20;5.53;;;1.73;;
22176;SDS011;11254;50.098;8.726;2023-08-08T12:14:55;4.32;;;1.27;;
22176;SDS011;11254;50.098;8.726;2023-08-08T12:17:43;7.65;;;2.05;;
22176;SDS011;11254;50.098;8.726;2023-08-08T12:20:16;3.63;;;1.45;;
22176;SDS011;11254;50.098;8.726;2023-08-08T12:22:46;4.00;;;1.50;;
22176;SDS011;11254;50.098;8.726;2023-08-08T12:25:20;5.60;;;1.70;;
22176;SDS011;11254;50.098;8.726;2023-08-08T12:27:49;3.80;;;1.60;;
22176;SDS011;11254;50.098;8.726;2023-08-08T12:30:22;6.30;;;1.42;;
22176;SDS011;11254;50.098;8.726;2023-08-08T12:32:51;4.93;;;1.25;;
22176;SDS011;11254;50.098;8.726;2023-08-08T12:35:27;4.68;;;1.70;;
22176;SDS011;11254;50.098;8.726;2023-08-08T12:38:00;5.57;;;1.65;;
22176;SDS011;11254;50.098;8.726;2023-08-08T12:40:30;3.65;;;1.40;;
22176;SDS011;11254;50.098;8.726;2023-08-08T12:43:01;3.30;;;1.30;;
22176;SDS011;11254;50.098;8.726;2023-08-08T12:45:33;4.40;;;1.65;;
22176;SDS011;11254;50.098;8.726;2023-08-08T12:48:05;4.38;;;1.27;;
22176;SDS011;11254;50.098;8.726;2023-08-08T12:50:34;4.78;;;1.52;;
22176;SDS011;11254;50.098;8.726;2023-08-08T12:53:03;3.67;;;1.30;;
22176;SDS011;11254;50.098;8.726;2023-08-08T12:55:31;4.00;;;1.40;;
22176;SDS011;11254;50.098;8.726;2023-08-08T12:58:02;6.68;;;1.33;;
22176;SDS011;11254;50.098;8.726;2023-08-08T13:00:32;3.42;;;1.30;;
22176;SDS011;11254;50.098;8.726;2023-08-08T13:03:02;4.03;;;1.30;;
22176;SDS011;11254;50.098;8.726;2023-08-08T13:05:35;4.75;;;1.42;;
22176;SDS011;11254;50.098;8.726;2023-08-08T13:12:20;3.88;;;1.20;;
22176;SDS011;11254;50.098;8.726;2023-08-08T13:14:53;5.43;;;1.60;;
22176;SDS011;11254;50.098;8.726;2023-08-08T13:17:25;4.20;;;1.30;;
22176;SDS011;11254;50.098;8.726;2023-08-08T13:19:54;5.63;;;1.40;;
22176;SDS011;11254;50.098;8.726;2023-08-08T13:22:25;3.83;;;1.92;;
22176;SDS011;11254;50.098;8.726;2023-08-08T13:24:56;3.13;;;1.30;;
22176;SDS011;11254;50.098;8.726;2023-08-08T13:27:25;2.85;;;1.40;;
22176;SDS011;11254;50.098;8.726;2023-08-08T13:29:53;3.80;;;1.30;;
22176;SDS011;11254;50.098;8.726;2023-08-08T13:32:27;3.78;;;1.48;;
22176;SDS011;11254;50.098;8.726;2023-08-08T13:34:56;3.30;;;1.23;;
22176;SDS011;11254;50.098;8.726;2023-08-08T13:37:25;3.17;;;1.15;;
22176;SDS011;11254;50.098;8.726;2023-08-08T13:40:07;2.50;;;1.20;;
22176;SDS011;11254;50.098;8.726;2023-08-08T13:42:36;4.20;;;1.40;;
22176;SDS011;11254;50.098;8.726;2023-08-08T13:45:06;5.80;;;1.40;;
22176;SDS011;11254;50.098;8.726;2023-08-08T13:47:37;3.47;;;1.30;;
22176;SDS011;11254;50.098;8.726;2023-08-08T13:50:08;4.82;;;1.00;;
22176;SDS011;11254;50.098;8.726;2023-08-08T13:52:37;4.50;;;1.33;;
22176;SDS011;11254;50.098;8.726;2023-08-08T13:55:15;4.47;;;1.02;;
22176;SDS011;11254;50.098;8.726;2023-08-08T13:57:49;3.97;;;1.20;;
22176;SDS011;11254;50.098;8.726;2023-08-08T14:00:20;4.50;;;1.65;;
22176;SDS011;11254;50.098;8.726;2023-08-08T14:02:51;4.63;;;1.52;;
22176;SDS011;11254;50.098;8.726;2023-08-08T14:05:20;3.75;;;1.40;;
22176;SDS011;11254;50.098;8.726;2023-08-08T14:07:49;3.40;;;1.27;;
22176;SDS011;11254;50.098;8.726;2023-08-08T14:10:18;3.90;;;1.17;;
22176;SDS011;11254;50.098;8.726;2023-08-08T14:12:47;2.58;;;1.00;;
22176;SDS011;11254;50.098;8.726;2023-08-08T14:15:21;3.03;;;1.10;;
22176;SDS011;11254;50.098;8.726;2023-08-08T14:17:49;3.33;;;1.15;;
22176;SDS011;11254;50.098;8.726;2023-08-08T14:20:21;4.10;;;1.20;;
22176;SDS011;11254;50.098;8.726;2023-08-08T14:22:50;3.85;;;1.30;;
22176;SDS011;11254;50.098;8.726;2023-08-08T14:25:22;3.55;;;1.13;;
22176;SDS011;11254;50.098;8.726;2023-08-08T14:27:56;3.60;;;1.40;;
22176;SDS011;11254;50.098;8.726;2023-08-08T14:30:26;4.80;;;1.30;;
22176;SDS011;11254;50.098;8.726;2023-08-08T14:32:55;4.22;;;1.20;;
22176;SDS011;11254;50.098;8.726;2023-08-08T14:35:24;3.63;;;1.20;;
22176;SDS011;11254;50.098;8.726;2023-08-08T14:37:54;3.05;;;1.10;;
22176;SDS011;11254;50.098;8.726;2023-08-08T14:40:22;2.70;;;1.15;;
22176;SDS011;11254;50.098;8.726;2023-08-08T14:42:51;4.35;;;1.30;;
22176;SDS011;11254;50.098;8.726;2023-08-08T14:45:21;3.78;;;1.10;;
22176;SDS011;11254;50.098;8.726;2023-08-08T14:47:50;3.00;;;1.15;;
22176;SDS011;11254;50.098;8.726;2023-08-08T14:50:18;5.63;;;1.10;;
22176;SDS011;11254;50.098;8.726;2023-08-08T14:52:48;3.67;;;1.25;;
22176;SDS011;11254;50.098;8.726;2023-08-08T14:55:17;3.00;;;1.25;;
22176;SDS011;11254;50.098;8.726;2023-08-08T14:57:45;2.83;;;1.30;;
22176;SDS011;11254;50.098;8.726;2023-08-08T15:00:13;3.08;;;1.13;;
22176;SDS011;11254;50.098;8.726;2023-08-08T15:02:42;3.97;;;1.30;;
22176;SDS011;11254;50.098;8.726;2023-08-08T15:05:13;4.68;;;1.15;;
22176;SDS011;11254;50.098;8.726;2023-08-08T15:07:52;4.60;;;1.10;;
22176;SDS011;11254;50.098;8.726;2023-08-08T15:10:23;5.50;;;1.40;;